Time,TemperatureF,DewpointF,PressureIn,WindDirection,WindDirectionDegrees,WindSpeedMPH,WindSpeedGustMPH,Humidity,HourlyPrecipIn,Conditions,Clouds,dailyrainin,SolarRadiationWatts/m^2,SoftwareType,DateUTC
2014-01-10 00:36:00,39.5,39.0,29.97,SW,225,0.0,3.0,96,0.00,,,0.00,0,weatherlink.com 1.10,2014-01-09 23:36:00,
2014-01-10 01:21:00,39.3,38.0,29.94,SSW,209,0.0,4.0,96,0.00,,,0.00,0,weatherlink.com 1.10,2014-01-10 00:21:00,
2014-01-10 01:36:00,39.3,38.0,29.94,SW,222,2.0,6.0,96,0.00,,,0.00,0,weatherlink.com 1.10,2014-01-10 00:36:00,
2014-01-10 01:51:00,39.2,38.0,29.94,SSW,211,0.0,5.0,96,0.00,,,0.00,0,weatherlink.com 1.10,2014-01-10 00:51:00,
2014-01-10 02:06:00,39.1,38.0,29.94,SW,221,4.0,6.0,96,0.00,,,0.00,0,weatherlink.com 1.10,2014-01-10 01:06:00,
2014-01-10 02:21:00,38.9,38.0,29.94,SW,225,4.0,8.0,96,0.01,,,0.01,0,weatherlink.com 1.10,2014-01-10 01:21:00,
2014-01-10 02:36:00,38.9,38.0,29.93,WSW,248,1.0,6.0,96,0.01,,,0.01,0,weatherlink.com 1.10,2014-01-10 01:36:00,
2014-01-10 02:51:00,38.7,38.0,29.92,South,188,3.0,7.0,96,0.01,,,0.01,0,weatherlink.com 1.10,2014-01-10 01:51:00,
2014-01-10 03:06:00,38.6,38.0,29.93,North,360,4.0,8.0,96,0.01,,,0.01,0,weatherlink.com 1.10,2014-01-10 02:06:00,
2014-01-10 03:21:00,38.5,38.0,29.92,SSW,212,3.0,6.0,96,0.00,,,0.01,0,weatherlink.com 1.10,2014-01-10 02:21:00,
2014-01-10 03:36:00,38.6,38.0,29.92,SW,219,0.0,4.0,96,0.00,,,0.01,0,weatherlink.com 1.10,2014-01-10 02:36:00,
2014-01-10 03:51:00,38.5,38.0,29.92,SW,219,0.0,6.0,96,0.00,,,0.01,0,weatherlink.com 1.10,2014-01-10 02:51:00,
2014-01-10 04:06:00,38.4,37.0,29.92,SW,224,0.0,4.0,96,0.00,,,0.01,0,weatherlink.com 1.10,2014-01-10 03:06:00,
2014-01-10 04:21:00,38.3,37.0,29.92,SW,223,0.0,4.0,96,0.00,,,0.01,0,weatherlink.com 1.10,2014-01-10 03:21:00,
2014-01-10 04:36:00,38.4,37.0,29.92,SW,222,0.0,3.0,96,0.00,,,0.01,0,weatherlink.com 1.10,2014-01-10 03:36:00,
2014-01-10 04:51:00,38.6,38.0,29.91,SW,221,0.0,1.0,96,0.00,,,0.01,0,weatherlink.com 1.10,2014-01-10 03:51:00,
2014-01-10 05:07:00,38.4,37.0,29.89,SW,224,0.0,3.0,96,0.00,,,0.01,0,weatherlink.com 1.10,2014-01-10 04:07:00,
2014-01-10 05:22:00,38.5,38.0,29.91,SW,225,0.0,2.0,96,0.00,,,0.01,0,weatherlink.com 1.10,2014-01-10 04:22:00,
2014-01-10 05:37:00,38.5,38.0,29.91,SW,226,0.0,0.0,96,0.00,,,0.01,0,weatherlink.com 1.10,2014-01-10 04:37:00,
2014-01-10 05:52:00,38.7,38.0,29.92,SW,221,0.0,0.0,96,0.00,,,0.01,0,weatherlink.com 1.10,2014-01-10 04:52:00,
2014-01-10 06:07:00,38.9,38.0,29.93,SW,224,0.0,1.0,96,0.00,,,0.01,0,weatherlink.com 1.10,2014-01-10 05:07:00,
2014-01-10 06:22:00,38.9,38.0,29.93,SW,221,0.0,0.0,96,0.00,,,0.01,0,weatherlink.com 1.10,2014-01-10 05:22:00,
2014-01-10 06:37:00,39.1,38.0,29.93,North,360,0.0,0.0,96,0.00,,,0.01,0,weatherlink.com 1.10,2014-01-10 05:37:00,
2014-01-10 06:52:00,39.0,38.0,29.93,SW,224,0.0,1.0,96,0.00,,,0.01,0,weatherlink.com 1.10,2014-01-10 05:52:00,
2014-01-10 07:07:00,38.9,38.0,29.95,North,360,0.0,0.0,96,0.00,,,0.01,0,weatherlink.com 1.10,2014-01-10 06:07:00,
2014-01-10 07:22:00,39.1,38.0,29.95,SW,232,0.0,0.0,96,0.00,,,0.01,0,weatherlink.com 1.10,2014-01-10 06:22:00,
2014-01-10 07:37:00,39.1,38.0,29.96,SSW,205,0.0,2.0,96,0.00,,,0.01,0,weatherlink.com 1.10,2014-01-10 06:37:00,
2014-01-10 07:52:00,39.2,38.0,29.95,North,355,2.0,3.0,96,0.00,,,0.01,7,weatherlink.com 1.10,2014-01-10 06:52:00,
2014-01-10 08:07:00,39.3,38.0,29.96,North,360,0.0,4.0,96,0.00,,,0.01,21,weatherlink.com 1.10,2014-01-10 07:07:00,
2014-01-10 08:22:00,39.6,39.0,29.96,NNW,327,0.0,3.0,96,0.00,,,0.01,42,weatherlink.com 1.10,2014-01-10 07:22:00,
2014-01-10 08:37:00,39.8,39.0,29.98,North,5,1.0,3.0,96,0.00,,,0.01,53,weatherlink.com 1.10,2014-01-10 07:37:00,
2014-01-10 08:52:00,40.1,39.0,29.98,North,5,0.0,1.0,96,0.00,,,0.01,49,weatherlink.com 1.10,2014-01-10 07:52:00,
2014-01-10 09:07:00,40.4,39.0,29.97,North,5,0.0,3.0,96,0.00,,,0.01,69,weatherlink.com 1.10,2014-01-10 08:07:00,
2014-01-10 09:22:00,43.0,41.0,29.99,NNE,12,1.0,5.0,93,0.00,,,0.01,74,weatherlink.com 1.10,2014-01-10 08:22:00,
2014-01-10 09:52:00,42.6,41.0,30.01,North,355,2.0,4.0,92,0.00,,,0.01,42,weatherlink.com 1.10,2014-01-10 08:52:00,
2014-01-10 10:07:00,42.5,40.0,30.01,North,5,0.0,3.0,92,0.00,,,0.01,65,weatherlink.com 1.10,2014-01-10 09:07:00,
2014-01-10 10:22:00,42.4,40.0,30.03,SSW,202,0.0,2.0,92,0.00,,,0.01,56,weatherlink.com 1.10,2014-01-10 09:22:00,
2014-01-10 10:37:00,42.8,41.0,30.02,NNW,338,3.0,4.0,92,0.00,,,0.01,46,weatherlink.com 1.10,2014-01-10 09:37:00,
2014-01-10 10:52:00,42.8,40.0,30.02,North,355,0.0,5.0,91,0.00,,,0.01,32,weatherlink.com 1.10,2014-01-10 09:52:00,
2014-01-10 11:07:00,43.0,41.0,30.04,North,355,0.0,3.0,91,0.00,,,0.01,35,weatherlink.com 1.10,2014-01-10 10:07:00,
2014-01-10 11:22:00,42.9,41.0,30.04,North,355,0.0,3.0,91,0.00,,,0.01,46,weatherlink.com 1.10,2014-01-10 10:22:00,
2014-01-10 11:37:00,43.2,41.0,30.04,NNE,32,0.0,2.0,91,0.00,,,0.01,77,weatherlink.com 1.10,2014-01-10 10:37:00,
2014-01-10 11:52:00,43.5,41.0,30.04,NNE,30,0.0,2.0,90,0.00,,,0.01,51,weatherlink.com 1.10,2014-01-10 10:52:00,
2014-01-10 12:07:00,43.9,41.0,30.02,NNE,28,2.0,4.0,90,0.00,,,0.01,35,weatherlink.com 1.10,2014-01-10 11:07:00,
2014-01-10 12:22:00,44.0,41.0,30.02,SE,143,0.0,2.0,88,0.00,,,0.01,107,weatherlink.com 1.10,2014-01-10 11:22:00,
2014-01-10 12:37:00,47.3,43.0,30.02,NNE,19,0.0,3.0,85,0.00,,,0.01,132,weatherlink.com 1.10,2014-01-10 11:37:00,
2014-01-10 12:52:00,49.6,41.0,30.02,South,171,3.0,8.0,72,0.00,,,0.01,346,weatherlink.com 1.10,2014-01-10 11:52:00,
2014-01-10 13:07:00,51.1,40.0,30.02,WNW,292,0.0,7.0,67,0.00,,,0.01,265,weatherlink.com 1.10,2014-01-10 12:07:00,
2014-01-10 13:52:00,50.9,40.0,30.04,NNE,28,0.0,6.0,66,0.00,,,0.01,262,weatherlink.com 1.10,2014-01-10 12:52:00,
2014-01-10 14:07:00,50.6,40.0,30.04,West,261,0.0,6.0,66,0.00,,,0.01,227,weatherlink.com 1.10,2014-01-10 13:07:00,
2014-01-10 14:22:00,50.1,40.0,30.05,North,360,2.0,8.0,68,0.00,,,0.01,171,weatherlink.com 1.10,2014-01-10 13:22:00,
2014-01-10 14:37:00,49.7,39.0,30.05,SE,144,0.0,6.0,66,0.00,,,0.01,81,weatherlink.com 1.10,2014-01-10 13:37:00,
2014-01-10 14:52:00,49.2,38.0,30.05,NNW,342,0.0,4.0,66,0.00,,,0.01,25,weatherlink.com 1.10,2014-01-10 13:52:00,
2014-01-10 15:08:00,48.4,38.0,30.07,SSE,164,0.0,7.0,67,0.00,,,0.01,53,weatherlink.com 1.10,2014-01-10 14:08:00,
2014-01-10 15:23:00,47.9,38.0,30.07,South,178,1.0,4.0,68,0.00,,,0.01,26,weatherlink.com 1.10,2014-01-10 14:23:00,
2014-01-10 15:38:00,47.2,38.0,30.07,SSW,209,1.0,5.0,70,0.00,,,0.01,12,weatherlink.com 1.10,2014-01-10 14:38:00,
2014-01-10 15:53:00,46.5,38.0,30.07,WSW,238,0.0,5.0,71,0.00,,,0.01,9,weatherlink.com 1.10,2014-01-10 14:53:00,
2014-01-10 16:08:00,45.9,37.0,30.08,West,259,1.0,4.0,72,0.00,,,0.01,5,weatherlink.com 1.10,2014-01-10 15:08:00,
2014-01-10 16:23:00,45.4,37.0,30.08,SW,216,0.0,4.0,73,0.00,,,0.01,0,weatherlink.com 1.10,2014-01-10 15:23:00,
2014-01-10 16:38:00,45.0,37.0,30.09,SW,235,1.0,2.0,73,0.00,,,0.01,0,weatherlink.com 1.10,2014-01-10 15:38:00,
2014-01-10 17:08:00,44.6,36.0,30.09,WSW,258,0.0,4.0,73,0.00,,,0.01,0,weatherlink.com 1.10,2014-01-10 16:08:00,
2014-01-10 17:23:00,44.5,37.0,30.09,SSW,203,0.0,6.0,74,0.00,,,0.01,0,weatherlink.com 1.10,2014-01-10 16:23:00,
2014-01-10 17:37:00,44.2,36.0,30.10,SW,225,0.0,5.0,74,0.00,,,0.01,0,weatherlink.com 1.10,2014-01-10 16:37:00,
2014-01-10 17:53:00,44.1,36.0,30.10,WNW,298,0.0,4.0,73,0.00,,,0.01,0,weatherlink.com 1.10,2014-01-10 16:53:00,
2014-01-10 18:08:00,43.8,36.0,30.11,North,360,1.0,2.0,74,0.00,,,0.01,0,weatherlink.com 1.10,2014-01-10 17:08:00,
2014-01-10 18:23:00,43.0,36.0,30.11,North,360,0.0,2.0,75,0.00,,,0.01,0,weatherlink.com 1.10,2014-01-10 17:23:00,
2014-01-10 18:38:00,42.2,35.0,30.11,NW,323,0.0,1.0,75,0.00,,,0.01,0,weatherlink.com 1.10,2014-01-10 17:38:00,
2014-01-10 18:53:00,41.7,35.0,30.12,NW,324,0.0,1.0,76,0.00,,,0.01,0,weatherlink.com 1.10,2014-01-10 17:53:00,
2014-01-10 19:08:00,41.5,35.0,30.12,West,261,1.0,3.0,78,0.00,,,0.01,0,weatherlink.com 1.10,2014-01-10 18:08:00,
2014-01-10 19:23:00,40.9,35.0,30.13,WSW,251,0.0,2.0,78,0.00,,,0.01,0,weatherlink.com 1.10,2014-01-10 18:23:00,
2014-01-10 19:38:00,40.8,36.0,30.13,WSW,250,0.0,2.0,82,0.00,,,0.01,0,weatherlink.com 1.10,2014-01-10 18:38:00,
2014-01-10 19:53:00,40.5,34.0,30.13,SW,225,0.0,5.0,79,0.00,,,0.01,0,weatherlink.com 1.10,2014-01-10 18:53:00,
2014-01-10 20:23:00,39.3,34.0,30.14,WSW,240,2.0,2.0,80,0.00,,,0.01,0,weatherlink.com 1.10,2014-01-10 19:23:00,
2014-01-10 21:08:00,38.5,34.0,30.15,WSW,248,0.0,1.0,83,0.00,,,0.01,0,weatherlink.com 1.10,2014-01-10 20:08:00,
2014-01-10 21:23:00,38.9,34.0,30.15,WSW,248,0.0,1.0,83,0.00,,,0.01,0,weatherlink.com 1.10,2014-01-10 20:23:00,
2014-01-10 21:38:00,39.0,34.0,30.15,WSW,249,0.0,2.0,82,0.00,,,0.01,0,weatherlink.com 1.10,2014-01-10 20:38:00,
2014-01-10 21:53:00,38.8,34.0,30.15,North,360,0.0,2.0,82,0.00,,,0.01,0,weatherlink.com 1.10,2014-01-10 20:53:00,
2014-01-10 22:08:00,39.2,35.0,30.15,North,360,0.0,4.0,83,0.00,,,0.01,0,weatherlink.com 1.10,2014-01-10 21:08:00,
2014-01-10 22:23:00,39.8,34.0,30.16,SW,229,0.0,4.0,81,0.00,,,0.01,0,weatherlink.com 1.10,2014-01-10 21:23:00,
2014-01-10 22:38:00,39.9,34.0,30.16,WSW,239,0.0,1.0,80,0.00,,,0.01,0,weatherlink.com 1.10,2014-01-10 21:38:00,
2014-01-10 22:53:00,39.7,34.0,30.16,WSW,238,0.0,1.0,80,0.00,,,0.01,0,weatherlink.com 1.10,2014-01-10 21:53:00,
2014-01-10 23:08:00,39.7,34.0,30.16,North,360,0.0,2.0,80,0.00,,,0.00,0,weatherlink.com 1.10,2014-01-10 22:08:00,
2014-01-10 23:23:00,39.8,34.0,30.16,SW,232,1.0,3.0,80,0.00,,,0.00,0,weatherlink.com 1.10,2014-01-10 22:23:00,
2014-01-10 23:38:00,39.9,34.0,30.16,SW,234,0.0,1.0,79,0.00,,,0.00,0,weatherlink.com 1.10,2014-01-10 22:38:00,
2014-01-10 23:53:00,39.8,34.0,30.16,SW,236,0.0,1.0,79,0.00,,,0.00,0,weatherlink.com 1.10,2014-01-10 22:53:00,